createdAt,value
2022-10-27T00:00:40.662Z,11.35
2022-10-27T00:03:13.555Z,13.80
2022-10-27T00:05:42.143Z,13.43
2022-10-27T00:08:08.713Z,8.98
2022-10-27T00:10:35.314Z,8.50
2022-10-27T00:13:01.870Z,13.93
2022-10-27T00:15:28.456Z,13.18
2022-10-27T00:17:55.003Z,10.50
2022-10-27T00:20:21.610Z,14.90
2022-10-27T00:22:48.553Z,12.60
2022-10-27T00:25:15.441Z,13.10
2022-10-27T00:27:41.998Z,12.82
2022-10-27T00:30:09.115Z,14.88
2022-10-27T00:32:35.730Z,9.57
2022-10-27T00:35:02.290Z,9.57
2022-10-27T00:37:29.171Z,13.40
2022-10-27T00:39:55.736Z,10.40
2022-10-27T00:42:22.294Z,17.67
2022-10-27T00:44:49.525Z,13.52
2022-10-27T00:47:20.721Z,15.93
2022-10-27T00:50:05.556Z,11.52
2022-10-27T00:52:39.573Z,14.52
2022-10-27T00:55:17.286Z,12.40
2022-10-27T00:57:46.208Z,12.27
2022-10-27T01:00:13.306Z,11.02
2022-10-27T01:02:39.998Z,11.38
2022-10-27T01:05:19.505Z,10.20
2022-10-27T01:07:48.712Z,11.73
2022-10-27T01:10:16.979Z,12.18
2022-10-27T01:12:44.457Z,8.68
2022-10-27T01:15:11.831Z,15.60
2022-10-27T01:18:01.351Z,15.13
2022-10-27T01:20:37.985Z,12.45
2022-10-27T01:23:34.644Z,9.88
2022-10-27T01:26:20.567Z,11.95
2022-10-27T01:29:04.959Z,12.50
2022-10-27T01:31:44.276Z,11.55
2022-10-27T01:36:52.673Z,10.38
2022-10-27T01:39:31.266Z,9.70
2022-10-27T01:42:09.885Z,10.25
2022-10-27T01:44:44.632Z,11.07
2022-10-27T01:47:12.784Z,11.02
2022-10-27T01:49:41.564Z,13.10
2022-10-27T01:52:39.261Z,11.48
2022-10-27T01:55:18.903Z,9.27
2022-10-27T01:58:26.248Z,13.02
2022-10-27T02:01:19.582Z,9.45
2022-10-27T02:04:04.823Z,14.30
2022-10-27T02:06:42.488Z,14.00
2022-10-27T02:09:22.591Z,10.93
2022-10-27T02:11:52.422Z,11.60
2022-10-27T02:14:20.182Z,14.38
2022-10-27T02:16:52.063Z,10.80
2022-10-27T02:19:33.311Z,15.65
2022-10-27T02:22:02.092Z,9.20
2022-10-27T02:24:29.736Z,16.90
2022-10-27T02:27:01.493Z,10.13
2022-10-27T02:29:36.145Z,12.50
2022-10-27T02:32:08.749Z,14.30
2022-10-27T02:34:37.362Z,14.15
2022-10-27T02:37:05.753Z,13.20
2022-10-27T02:39:32.513Z,18.83
2022-10-27T02:41:59.078Z,14.18
2022-10-27T02:44:25.688Z,12.25
2022-10-27T02:46:53.136Z,12.25
2022-10-27T02:49:20.749Z,13.93
2022-10-27T02:51:47.314Z,14.73
2022-10-27T02:54:13.869Z,10.20
2022-10-27T02:56:40.419Z,9.93
2022-10-27T02:59:06.983Z,14.38
2022-10-27T03:01:33.735Z,14.00
2022-10-27T03:04:00.423Z,10.73
2022-10-27T03:06:27.015Z,12.18
2022-10-27T03:08:53.616Z,10.70
2022-10-27T03:11:20.950Z,14.48
2022-10-27T03:13:47.492Z,11.63
2022-10-27T03:16:14.052Z,14.00
2022-10-27T03:18:40.607Z,11.65
2022-10-27T03:21:07.240Z,12.20
2022-10-27T03:23:34.065Z,10.30
2022-10-27T03:26:00.957Z,15.30
2022-10-27T03:28:30.210Z,10.30
2022-10-27T03:30:56.841Z,11.25
2022-10-27T03:33:23.415Z,10.07
2022-10-27T03:35:50.025Z,9.52
2022-10-27T03:38:16.594Z,12.15
2022-10-27T03:40:43.146Z,11.02
2022-10-27T03:43:10.857Z,11.30
2022-10-27T03:45:37.668Z,11.00
2022-10-27T03:48:06.763Z,13.15
2022-10-27T03:50:33.659Z,12.52
2022-10-27T03:53:00.713Z,14.40
2022-10-27T03:55:27.267Z,12.07
2022-10-27T03:57:53.987Z,10.10
2022-10-27T04:00:20.724Z,8.52
2022-10-27T04:02:47.367Z,13.43
2022-10-27T04:05:14.578Z,11.18
2022-10-27T04:07:46.240Z,9.85
2022-10-27T04:10:14.156Z,10.65
2022-10-27T04:12:49.122Z,12.55
2022-10-27T04:15:16.186Z,11.48
2022-10-27T04:17:42.753Z,10.45
2022-10-27T04:20:09.862Z,11.88
2022-10-27T04:22:36.447Z,12.18
2022-10-27T04:25:03.173Z,11.13
2022-10-27T04:27:29.721Z,11.85
2022-10-27T04:29:56.281Z,8.27
2022-10-27T04:32:22.892Z,11.18
2022-10-27T04:34:49.440Z,11.13
2022-10-27T04:37:16.012Z,10.48
2022-10-27T04:39:42.583Z,9.73
2022-10-27T04:42:10.772Z,12.65
2022-10-27T04:44:37.409Z,11.70
2022-10-27T04:47:04.003Z,8.73
2022-10-27T04:49:30.622Z,11.02
2022-10-27T04:51:57.212Z,7.90
2022-10-27T04:54:23.774Z,9.23
2022-10-27T04:56:50.911Z,6.82
2022-10-27T04:59:17.461Z,7.82
2022-10-27T05:01:44.127Z,6.28
2022-10-27T05:04:10.740Z,7.20
2022-10-27T05:06:37.285Z,6.72
2022-10-27T05:09:03.920Z,6.53
2022-10-27T05:11:30.567Z,9.20
2022-10-27T05:13:57.109Z,6.60
2022-10-27T05:16:23.679Z,11.32
2022-10-27T05:18:50.273Z,7.45
2022-10-27T05:21:16.869Z,9.10
2022-10-27T05:23:46.866Z,6.88
2022-10-27T05:26:14.316Z,9.20
2022-10-27T05:28:43.970Z,8.68
2022-10-27T05:31:10.863Z,5.88
2022-10-27T05:33:37.451Z,6.45
2022-10-27T05:36:04.269Z,11.57
2022-10-27T05:38:30.840Z,11.95
2022-10-27T05:40:58.186Z,13.10
2022-10-27T05:43:25.263Z,8.80
2022-10-27T05:45:52.468Z,10.77
2022-10-27T05:48:19.102Z,7.32
2022-10-27T05:50:45.870Z,7.63
2022-10-27T05:53:12.473Z,11.35
2022-10-27T05:55:39.009Z,8.13
2022-10-27T05:58:06.775Z,9.27
2022-10-27T06:00:36.510Z,12.00
2022-10-27T06:03:05.082Z,8.13
2022-10-27T06:05:35.097Z,7.38
2022-10-27T06:08:01.670Z,7.90
2022-10-27T06:10:31.560Z,7.90
2022-10-27T06:13:05.548Z,9.63
2022-10-27T06:15:33.490Z,7.20
2022-10-27T06:18:00.159Z,9.52
2022-10-27T06:20:27.659Z,9.45
2022-10-27T06:22:54.315Z,10.52
2022-10-27T06:25:20.953Z,10.25
2022-10-27T06:27:47.554Z,7.22
2022-10-27T06:30:14.200Z,6.57
2022-10-27T06:32:41.789Z,11.55
2022-10-27T06:35:09.588Z,5.28
2022-10-27T06:37:40.414Z,8.07
2022-10-27T06:40:08.157Z,6.27
2022-10-27T06:42:49.508Z,8.85
2022-10-27T06:45:25.436Z,5.75
2022-10-27T06:47:59.277Z,9.25
2022-10-27T06:50:25.913Z,6.97
2022-10-27T06:52:53.046Z,7.60
2022-10-27T06:55:20.402Z,12.65
2022-10-27T06:57:47.022Z,11.80
2022-10-27T07:00:14.546Z,10.38
2022-10-27T07:02:41.330Z,8.20
2022-10-27T07:05:09.227Z,8.02
2022-10-27T07:07:36.348Z,7.78
2022-10-27T07:10:04.426Z,12.02
2022-10-27T07:12:31.050Z,8.27
2022-10-27T07:14:57.693Z,8.30
2022-10-27T07:17:24.329Z,5.72
2022-10-27T07:19:50.912Z,6.15
2022-10-27T07:22:18.367Z,7.50
2022-10-27T07:24:44.951Z,9.25
2022-10-27T07:27:11.519Z,6.82
2022-10-27T07:29:38.128Z,9.82
2022-10-27T07:32:04.921Z,9.55
2022-10-27T07:34:31.491Z,6.80
2022-10-27T07:36:58.040Z,8.60
2022-10-27T07:39:24.683Z,6.32
2022-10-27T07:41:51.247Z,5.72
2022-10-27T07:44:17.932Z,8.73
2022-10-27T07:46:44.515Z,22.48
2022-10-27T07:49:11.061Z,8.32
2022-10-27T07:51:37.647Z,7.60
2022-10-27T07:54:05.480Z,4.95
2022-10-27T07:56:32.689Z,10.15
2022-10-27T07:58:59.969Z,10.07
2022-10-27T08:01:26.988Z,7.55
2022-10-27T08:03:53.955Z,5.18
2022-10-27T08:06:20.685Z,7.88
2022-10-27T08:08:47.358Z,8.85
2022-10-27T08:11:13.932Z,8.55
2022-10-27T08:13:40.571Z,6.53
2022-10-27T08:16:07.460Z,6.75
2022-10-27T08:18:33.990Z,3.88
2022-10-27T08:21:03.200Z,7.05
2022-10-27T08:23:29.752Z,5.75
2022-10-27T08:25:56.315Z,8.35
2022-10-27T08:28:24.513Z,6.28
2022-10-27T08:30:53.109Z,5.00
2022-10-27T08:33:21.455Z,3.95
2022-10-27T08:35:48.359Z,9.63
2022-10-27T08:38:16.442Z,4.35
2022-10-27T08:41:13.601Z,5.15
2022-10-27T08:43:52.487Z,8.25
2022-10-27T08:46:39.068Z,5.95
2022-10-27T08:49:19.225Z,6.63
2022-10-27T08:51:48.200Z,4.30
2022-10-27T08:54:17.844Z,6.47
2022-10-27T08:56:44.929Z,7.20
2022-10-27T08:59:31.743Z,4.13
2022-10-27T09:02:01.544Z,7.07
2022-10-27T09:04:53.316Z,5.22
2022-10-27T09:07:35.568Z,4.45
2022-10-27T09:10:05.718Z,6.40
2022-10-27T09:13:03.209Z,6.05
2022-10-27T09:15:38.702Z,5.63
2022-10-27T09:18:12.287Z,3.67
2022-10-27T09:20:55.354Z,6.88
2022-10-27T09:23:27.987Z,4.60
2022-10-27T09:25:56.680Z,5.65
2022-10-27T09:28:30.842Z,4.63
2022-10-27T09:30:58.432Z,4.55
2022-10-27T09:33:37.565Z,5.95
2022-10-27T09:36:23.404Z,7.10
2022-10-27T09:38:50.208Z,7.90
2022-10-27T09:41:17.127Z,7.85
2022-10-27T09:43:43.746Z,4.45
2022-10-27T09:46:32.853Z,4.55
2022-10-27T09:49:08.324Z,4.72
2022-10-27T09:51:46.179Z,7.72
2022-10-27T09:54:30.888Z,6.55
2022-10-27T09:57:32.627Z,2.95
2022-10-27T10:00:08.088Z,4.95
2022-10-27T10:02:44.286Z,4.97
2022-10-27T10:05:22.445Z,9.10
2022-10-27T10:07:49.427Z,5.22
2022-10-27T10:10:30.149Z,7.30
2022-10-27T10:13:03.251Z,5.30
2022-10-27T10:15:32.025Z,5.50
2022-10-27T10:18:00.771Z,4.72
2022-10-27T10:20:32.481Z,7.13
2022-10-27T10:23:01.032Z,4.38
2022-10-27T10:25:33.656Z,4.85
2022-10-27T10:28:05.966Z,5.05
2022-10-27T10:30:39.067Z,5.55
2022-10-27T10:33:06.914Z,3.53
2022-10-27T10:35:42.835Z,7.65
2022-10-27T10:38:25.345Z,4.10
2022-10-27T10:41:16.863Z,8.13
2022-10-27T10:43:44.083Z,6.35
2022-10-27T10:46:21.983Z,5.38
2022-10-27T10:48:58.052Z,7.95
2022-10-27T10:51:30.511Z,5.45
2022-10-27T10:54:13.685Z,4.50
2022-10-27T10:56:40.363Z,6.97
2022-10-27T10:59:09.972Z,4.13
2022-10-27T11:01:53.441Z,4.57
2022-10-27T11:04:25.269Z,4.90
2022-10-27T11:07:03.507Z,5.57
2022-10-27T11:10:07.399Z,5.53
2022-10-27T11:12:42.877Z,7.35
2022-10-27T11:15:27.298Z,4.45
2022-10-27T11:17:57.812Z,4.03
2022-10-27T11:20:36.527Z,7.68
2022-10-27T11:23:18.673Z,8.45
2022-10-27T11:25:45.536Z,6.40
2022-10-27T11:28:24.727Z,4.40
2022-10-27T11:31:17.575Z,4.82
2022-10-27T11:33:58.853Z,5.85
2022-10-27T11:36:39.836Z,5.38
2022-10-27T11:39:10.257Z,3.95
2022-10-27T11:41:55.301Z,6.07
2022-10-27T11:44:43.507Z,5.65
2022-10-27T11:47:31.961Z,4.55
2022-10-27T11:50:12.687Z,4.10
2022-10-27T11:52:44.123Z,9.00
2022-10-27T11:55:14.442Z,4.43
2022-10-27T11:58:26.061Z,7.13
2022-10-27T12:01:06.289Z,6.40
2022-10-27T12:03:53.070Z,5.07
2022-10-27T12:06:30.842Z,3.63
2022-10-27T12:09:04.414Z,4.72
2022-10-27T12:12:02.773Z,6.97
2022-10-27T12:14:34.495Z,3.90
2022-10-27T12:17:27.894Z,6.88
2022-10-27T12:19:56.415Z,6.80
2022-10-27T12:22:37.814Z,5.63
2022-10-27T12:25:12.842Z,5.18
2022-10-27T12:27:44.584Z,8.48
2022-10-27T12:30:17.431Z,7.10
2022-10-27T12:32:59.348Z,7.95
2022-10-27T12:35:39.770Z,6.43
2022-10-27T12:38:21.546Z,6.15
2022-10-27T12:41:00.055Z,4.68
2022-10-27T12:43:37.646Z,3.70
2022-10-27T12:46:15.427Z,5.38
2022-10-27T12:49:06.128Z,7.82
2022-10-27T12:51:44.280Z,5.50
2022-10-27T12:54:31.552Z,4.85
2022-10-27T12:57:15.431Z,5.00
2022-10-27T13:00:03.707Z,7.82
2022-10-27T13:02:36.816Z,4.57
2022-10-27T13:05:47.470Z,7.40
2022-10-27T13:08:26.348Z,5.97
2022-10-27T13:11:30.733Z,4.80
2022-10-27T13:14:27.692Z,5.03
2022-10-27T13:17:14.935Z,6.53
2022-10-27T13:20:02.422Z,7.97
2022-10-27T13:25:12.227Z,4.93
2022-10-27T13:28:00.284Z,7.75
2022-10-27T13:30:31.649Z,4.30
2022-10-27T13:32:58.212Z,4.88
2022-10-27T13:35:34.303Z,5.75
2022-10-27T13:38:21.213Z,9.82
2022-10-27T13:40:47.997Z,7.07
2022-10-27T13:43:23.398Z,7.65
2022-10-27T13:45:52.363Z,5.30
2022-10-27T13:48:21.682Z,5.22
2022-10-27T13:50:50.626Z,5.20
2022-10-27T13:53:20.636Z,5.35
2022-10-27T13:55:50.939Z,5.10
2022-10-27T13:58:26.644Z,5.88
2022-10-27T14:01:19.064Z,4.22
2022-10-27T14:04:11.677Z,5.47
2022-10-27T14:06:41.459Z,6.03
2022-10-27T14:09:38.731Z,3.97
2022-10-27T14:12:14.692Z,6.00
2022-10-27T14:14:41.917Z,4.63
2022-10-27T14:17:18.898Z,4.03
2022-10-27T14:20:16.055Z,3.70
2022-10-27T14:22:47.396Z,3.97
2022-10-27T14:25:14.208Z,5.05
2022-10-27T14:27:40.834Z,4.40
2022-10-27T14:30:21.119Z,3.40
2022-10-27T14:32:48.205Z,5.85
2022-10-27T14:35:26.508Z,8.07
2022-10-27T14:37:57.294Z,5.30
2022-10-27T14:40:38.913Z,3.97
2022-10-27T14:43:25.291Z,8.00
2022-10-27T14:45:58.580Z,5.47
2022-10-27T14:48:33.633Z,6.60
2022-10-27T14:51:03.082Z,4.82
2022-10-27T14:53:36.226Z,6.30
2022-10-27T14:56:17.073Z,4.60
2022-10-27T14:58:56.848Z,8.23
2022-10-27T15:01:39.924Z,4.88
2022-10-27T15:04:28.944Z,6.78
2022-10-27T15:06:57.852Z,5.25
2022-10-27T15:09:30.389Z,8.15
2022-10-27T15:11:59.258Z,7.28
2022-10-27T15:14:29.372Z,8.88
2022-10-27T15:16:56.163Z,6.28
2022-10-27T15:19:23.525Z,8.52
2022-10-27T15:21:50.906Z,10.75
2022-10-27T15:24:22.041Z,6.13
2022-10-27T15:26:49.920Z,5.60
2022-10-27T15:29:18.209Z,5.63
2022-10-27T15:31:46.475Z,8.60
2022-10-27T15:34:33.092Z,5.15
2022-10-27T15:37:26.813Z,5.20
2022-10-27T15:39:54.835Z,6.57
2022-10-27T15:42:37.172Z,3.65
2022-10-27T15:45:30.717Z,9.77
2022-10-27T15:47:57.864Z,14.23
2022-10-27T15:50:35.085Z,8.02
2022-10-27T15:53:12.768Z,4.25
2022-10-27T15:55:40.415Z,4.53
2022-10-27T15:58:30.141Z,10.02
2022-10-27T16:01:10.292Z,7.70
2022-10-27T16:03:41.484Z,8.98
2022-10-27T16:06:29.113Z,9.48
2022-10-27T16:08:58.232Z,7.57
2022-10-27T16:11:38.145Z,6.88
2022-10-27T16:14:07.292Z,7.45
2022-10-27T16:16:37.417Z,4.82
2022-10-27T16:19:05.903Z,5.95
2022-10-27T16:21:34.000Z,6.15
2022-10-27T16:24:13.742Z,6.63
2022-10-27T16:26:40.470Z,4.90
2022-10-27T16:29:07.184Z,9.40
2022-10-27T16:31:34.219Z,8.52
2022-10-27T16:34:01.143Z,8.20
2022-10-27T16:36:27.785Z,6.80
2022-10-27T16:38:54.331Z,7.20
2022-10-27T16:41:27.603Z,8.35
2022-10-27T16:43:54.730Z,5.57
2022-10-27T16:46:21.355Z,7.82
2022-10-27T16:48:47.924Z,9.30
2022-10-27T16:51:16.144Z,5.35
2022-10-27T16:53:43.214Z,4.38
2022-10-27T16:56:12.520Z,8.93
2022-10-27T16:58:41.586Z,6.10
2022-10-27T17:01:10.782Z,8.35
2022-10-27T17:03:37.778Z,8.90
2022-10-27T17:06:05.164Z,7.90
2022-10-27T17:08:33.481Z,14.02
2022-10-27T17:11:07.013Z,10.80
2022-10-27T17:13:34.066Z,7.78
2022-10-27T17:16:15.485Z,7.28
2022-10-27T17:18:43.313Z,9.50
2022-10-27T17:21:12.835Z,8.13
2022-10-27T17:23:40.060Z,8.82
2022-10-27T17:26:09.266Z,11.57
2022-10-27T17:28:36.654Z,13.05
2022-10-27T17:31:05.640Z,8.77
2022-10-27T17:33:33.812Z,7.68
2022-10-27T17:36:05.959Z,12.82
2022-10-27T17:38:36.511Z,8.77
2022-10-27T17:41:04.654Z,7.43
2022-10-27T17:43:36.070Z,8.10
2022-10-27T17:46:06.832Z,10.93
2022-10-27T17:48:36.336Z,10.10
2022-10-27T17:51:08.804Z,10.10
2022-10-27T17:53:36.809Z,17.40
2022-10-27T17:56:06.505Z,13.43
2022-10-27T17:58:35.567Z,16.90
2022-10-27T18:01:06.567Z,16.90
2022-10-27T18:03:35.686Z,14.65
2022-10-27T18:06:03.832Z,19.52
2022-10-27T18:08:31.143Z,14.52
2022-10-27T18:11:09.557Z,16.95
2022-10-27T18:13:38.702Z,12.57
2022-10-27T18:16:10.908Z,14.57
2022-10-27T18:18:38.421Z,10.68
2022-10-27T18:21:06.480Z,16.08
2022-10-27T18:23:33.592Z,11.85
2022-10-27T18:26:01.431Z,10.27
2022-10-27T18:28:28.296Z,18.30
2022-10-27T18:31:04.330Z,13.98
2022-10-27T18:33:31.162Z,8.82
2022-10-27T18:36:12.196Z,9.45
2022-10-27T18:38:38.903Z,12.35
2022-10-27T18:41:08.733Z,12.70
2022-10-27T18:43:35.380Z,10.82
2022-10-27T18:46:06.719Z,10.85
2022-10-27T18:48:35.332Z,15.20
2022-10-27T18:51:04.920Z,14.38
2022-10-27T18:53:31.680Z,12.98
2022-10-27T18:56:03.009Z,13.77
2022-10-27T18:58:31.550Z,8.57
2022-10-27T19:01:13.251Z,13.93
2022-10-27T19:06:09.403Z,12.50
2022-10-27T19:08:36.262Z,20.08
2022-10-27T19:11:08.014Z,17.45
2022-10-27T19:13:34.909Z,16.45
2022-10-27T19:16:02.458Z,14.15
2022-10-27T19:18:29.955Z,15.45
2022-10-27T19:21:02.106Z,14.88
2022-10-27T19:23:29.111Z,19.65
2022-10-27T19:26:05.094Z,15.52
2022-10-27T19:28:32.660Z,12.88
2022-10-27T19:30:59.265Z,16.88
2022-10-27T19:33:26.023Z,18.92
2022-10-27T19:35:53.692Z,17.40
2022-10-27T19:38:23.216Z,16.55
2022-10-27T19:40:49.896Z,15.80
2022-10-27T19:43:16.627Z,17.20
2022-10-27T19:45:49.922Z,14.30
2022-10-27T19:48:17.451Z,10.40
2022-10-27T19:50:45.203Z,9.57
2022-10-27T19:53:11.892Z,13.40
2022-10-27T19:55:38.491Z,10.85
2022-10-27T19:58:05.035Z,13.73
2022-10-27T20:00:31.650Z,13.65
2022-10-27T20:02:58.212Z,10.88
2022-10-27T20:05:24.840Z,11.65
2022-10-27T20:07:51.778Z,12.52
2022-10-27T20:10:20.202Z,12.85
2022-10-27T20:12:47.270Z,12.18
2022-10-27T20:15:14.352Z,12.43
2022-10-27T20:17:40.970Z,15.63
2022-10-27T20:20:08.077Z,10.70
2022-10-27T20:22:34.628Z,10.43
2022-10-27T20:25:01.193Z,13.55
2022-10-27T20:27:29.307Z,13.70
2022-10-27T20:29:55.887Z,15.27
2022-10-27T20:32:23.640Z,12.32
2022-10-27T20:34:50.250Z,9.18
2022-10-27T20:37:16.806Z,18.17
2022-10-27T20:39:43.468Z,14.95
2022-10-27T20:42:10.088Z,11.98
2022-10-27T20:44:36.645Z,15.57
2022-10-27T20:47:03.370Z,16.67
2022-10-27T20:49:29.929Z,15.02
2022-10-27T20:51:56.484Z,13.82
2022-10-27T20:54:23.059Z,11.75
2022-10-27T20:56:49.618Z,17.50
2022-10-27T20:59:19.979Z,16.90
2022-10-27T21:01:49.219Z,12.13
2022-10-27T21:04:17.647Z,10.77
2022-10-27T21:06:46.537Z,10.77
2022-10-27T21:09:15.295Z,10.15
2022-10-27T21:11:43.158Z,13.30
2022-10-27T21:14:10.244Z,13.27
2022-10-27T21:16:37.115Z,14.85
2022-10-27T21:19:06.220Z,11.57
2022-10-27T21:21:33.092Z,11.65
2022-10-27T21:24:01.045Z,12.10
2022-10-27T21:26:27.977Z,10.77
2022-10-27T21:28:56.581Z,14.13
2022-10-27T21:31:25.273Z,12.32
2022-10-27T21:33:52.131Z,13.95
2022-10-27T21:36:18.751Z,10.90
2022-10-27T21:38:48.485Z,9.90
2022-10-27T21:41:18.629Z,13.77
2022-10-27T21:43:47.330Z,13.10
2022-10-27T21:46:15.911Z,17.40
2022-10-27T21:48:42.885Z,11.38
2022-10-27T21:51:12.744Z,12.50
2022-10-27T21:53:39.376Z,14.23
2022-10-27T21:56:07.930Z,12.00
2022-10-27T21:58:36.299Z,10.13
2022-10-27T22:01:10.505Z,16.73
2022-10-27T22:03:37.707Z,12.77
2022-10-27T22:06:05.304Z,15.13
2022-10-27T22:08:32.540Z,13.10
2022-10-27T22:11:07.453Z,17.73
2022-10-27T22:13:34.506Z,14.25
2022-10-27T22:16:09.271Z,11.80
2022-10-27T22:18:36.463Z,13.88
2022-10-27T22:21:03.864Z,14.45
2022-10-27T22:23:30.664Z,10.55
2022-10-27T22:26:08.655Z,12.77
2022-10-27T22:28:36.452Z,14.35
2022-10-27T22:31:24.100Z,15.70
2022-10-27T22:33:51.133Z,13.88
2022-10-27T22:36:19.228Z,15.55
2022-10-27T22:38:46.149Z,12.60
2022-10-27T22:41:16.585Z,16.73
2022-10-27T22:43:43.906Z,13.27
2022-10-27T22:46:23.701Z,14.10
2022-10-27T22:48:50.560Z,14.45
2022-10-27T22:51:20.828Z,12.23
2022-10-27T22:53:48.199Z,17.25
2022-10-27T22:56:17.653Z,13.98
2022-10-27T22:58:50.800Z,16.20
2022-10-27T23:01:29.331Z,12.52
2022-10-27T23:03:58.889Z,14.00
2022-10-27T23:06:28.028Z,18.55
2022-10-27T23:08:57.627Z,14.95
2022-10-27T23:11:26.171Z,12.98
2022-10-27T23:13:53.002Z,14.73
2022-10-27T23:16:19.633Z,16.55
2022-10-27T23:18:46.378Z,10.30
2022-10-27T23:21:15.152Z,18.25
2022-10-27T23:23:43.209Z,14.45
2022-10-27T23:26:18.025Z,12.85
2022-10-27T23:28:47.491Z,21.85
2022-10-27T23:31:14.076Z,16.02
2022-10-27T23:33:40.643Z,16.98
2022-10-27T23:36:09.506Z,22.33
2022-10-27T23:38:36.102Z,12.52
2022-10-27T23:41:02.717Z,13.50
2022-10-27T23:43:29.416Z,17.10
2022-10-27T23:46:00.103Z,17.00
2022-10-27T23:48:26.748Z,13.88
2022-10-27T23:50:53.309Z,13.68
2022-10-27T23:53:19.891Z,16.27
2022-10-27T23:55:55.999Z,15.25
2022-10-27T23:58:23.530Z,13.65
